NO-0004 weather

CLOSED Gressholmen Seaplane Base
Oslo, Oslo, Norway

Public forecast

Using degrees Celsius for public forecast. Weather courtesy of forecast.io.

METAR (pilot weather report)

Closest report is Oslo, Fornebu Airport, 3.1 nm (5.7 km) WNW. Retrieved 2019/05/22 11:20 UTC (0 seconds ago):

ENFB 221120Z AUTO 03016KT 1900NDV -DZ BR BKN004/// 09/09 Q1007 W///S4

TAF (pilot weather forecast)

Closest forecast is Oslo Gardermoen Airport, 21.9 nm (40.5 km) NNE. Retrieved 2019/05/22 06:59 UTC (4 hours ago):

TAF ENGM 220500Z 2206/2306 04008KT 9999 -SHRA FEW030TCU BKN040 BECMG 2208/2211 15010KT TEMPO 2214/2219 SHRA BKN012 FEW025CB PROB40 2214/2219 TSRA PROB30 2223/2304 BKN012